createdAt,value
2022-10-04T00:01:22.140Z,6.46
2022-10-04T00:04:01.379Z,6.65
2022-10-04T00:06:28.390Z,6.76
2022-10-04T00:09:23.401Z,6.72
2022-10-04T00:11:53.242Z,6.81
2022-10-04T00:14:25.899Z,6.79
2022-10-04T00:16:52.873Z,6.80
2022-10-04T00:19:19.553Z,6.70
2022-10-04T00:21:58.343Z,6.77
2022-10-04T00:24:31.910Z,6.89
2022-10-04T00:27:07.798Z,6.89
2022-10-04T00:29:36.087Z,6.92
2022-10-04T00:32:11.881Z,6.86
2022-10-04T00:34:51.906Z,6.84
2022-10-04T00:37:19.496Z,6.72
2022-10-04T00:39:47.379Z,6.73
2022-10-04T00:42:29.801Z,6.71
2022-10-04T00:45:07.564Z,6.64
2022-10-04T00:47:52.422Z,6.61
2022-10-04T00:50:21.679Z,6.56
2022-10-04T00:52:51.410Z,6.43
2022-10-04T00:55:23.766Z,6.28
2022-10-04T00:57:54.073Z,6.18
2022-10-04T01:00:22.720Z,6.05
2022-10-04T01:02:59.299Z,5.94
2022-10-04T01:05:30.555Z,5.81
2022-10-04T01:07:57.135Z,5.79
2022-10-04T01:10:36.363Z,5.78
2022-10-04T01:13:15.226Z,5.64
2022-10-04T01:15:50.793Z,5.69
2022-10-04T01:18:20.282Z,5.62
2022-10-04T01:20:52.773Z,5.63
2022-10-04T01:23:34.468Z,5.49
2022-10-04T01:26:02.200Z,5.42
2022-10-04T01:28:29.278Z,5.39
2022-10-04T01:30:56.837Z,5.49
2022-10-04T01:33:25.222Z,5.64
2022-10-04T01:35:52.091Z,5.65
2022-10-04T01:38:18.752Z,5.55
2022-10-04T01:40:54.605Z,5.46
2022-10-04T01:43:25.634Z,5.34
2022-10-04T01:45:56.837Z,5.49
2022-10-04T01:48:26.266Z,5.36
2022-10-04T01:50:52.895Z,5.37
2022-10-04T01:53:25.546Z,5.27
2022-10-04T01:55:54.664Z,5.30
2022-10-04T01:58:28.008Z,5.51
2022-10-04T02:00:54.607Z,5.41
2022-10-04T02:03:25.008Z,5.48
2022-10-04T02:05:54.299Z,5.36
2022-10-04T02:08:26.830Z,5.47
2022-10-04T02:10:54.959Z,5.69
2022-10-04T02:13:24.413Z,5.73
2022-10-04T02:15:51.226Z,5.91
2022-10-04T02:18:20.684Z,6.11
2022-10-04T02:20:48.659Z,6.22
2022-10-04T02:23:17.032Z,6.19
2022-10-04T02:25:43.674Z,6.35
2022-10-04T02:28:11.377Z,6.43
2022-10-04T02:30:39.135Z,6.36
2022-10-04T02:33:05.989Z,6.23
2022-10-04T02:35:59.158Z,6.23
2022-10-04T02:38:28.467Z,6.31
2022-10-04T02:41:01.740Z,6.28
2022-10-04T02:43:40.351Z,6.22
2022-10-04T02:46:09.721Z,6.10
2022-10-04T02:48:36.842Z,6.17
2022-10-04T02:51:12.248Z,6.23
2022-10-04T02:54:03.445Z,6.28
2022-10-04T02:56:31.450Z,6.31
2022-10-04T02:59:01.246Z,6.39
2022-10-04T03:01:36.286Z,6.44
2022-10-04T03:04:03.480Z,6.40
2022-10-04T03:06:32.688Z,6.52
2022-10-04T03:09:01.299Z,6.60
2022-10-04T03:11:31.617Z,6.65
2022-10-04T03:14:00.166Z,6.68
2022-10-04T03:16:27.218Z,6.74
2022-10-04T03:18:57.042Z,6.74
2022-10-04T03:21:24.742Z,6.83
2022-10-04T03:23:52.298Z,6.85
2022-10-04T03:26:19.209Z,6.85
2022-10-04T03:28:46.249Z,6.83
2022-10-04T03:31:16.055Z,6.84
2022-10-04T03:33:43.710Z,6.76
2022-10-04T03:36:14.917Z,6.76
2022-10-04T03:38:43.508Z,6.69
2022-10-04T03:41:10.878Z,6.69
2022-10-04T03:43:40.648Z,6.53
2022-10-04T03:46:08.453Z,6.45
2022-10-04T03:48:37.166Z,6.57
2022-10-04T03:51:05.148Z,6.65
2022-10-04T03:53:36.458Z,6.76
2022-10-04T03:56:08.781Z,6.76
2022-10-04T03:58:36.110Z,6.77
2022-10-04T04:01:15.885Z,6.84
2022-10-04T04:03:47.810Z,6.94
2022-10-04T04:06:18.970Z,6.94
2022-10-04T04:08:47.218Z,6.95
2022-10-04T04:11:23.084Z,6.89
2022-10-04T04:13:52.982Z,6.83
2022-10-04T04:16:20.620Z,6.81
2022-10-04T04:18:48.633Z,6.76
2022-10-04T04:21:18.687Z,6.49
2022-10-04T04:23:48.773Z,6.77
2022-10-04T04:26:19.838Z,6.82
2022-10-04T04:28:51.086Z,6.86
2022-10-04T04:31:26.014Z,6.87
2022-10-04T04:33:59.392Z,6.83
2022-10-04T04:36:30.091Z,6.76
2022-10-04T04:39:27.422Z,6.74
2022-10-04T04:41:54.162Z,6.69
2022-10-04T04:44:21.712Z,6.65
2022-10-04T04:46:48.661Z,6.61
2022-10-04T04:49:21.109Z,6.43
2022-10-04T04:51:52.957Z,6.53
2022-10-04T04:54:22.284Z,6.46
2022-10-04T04:56:50.164Z,6.41
2022-10-04T04:59:17.405Z,6.50
2022-10-04T05:01:45.850Z,6.45
2022-10-04T05:04:12.763Z,6.44
2022-10-04T05:06:43.474Z,6.41
2022-10-04T05:09:22.314Z,6.24
2022-10-04T05:11:49.643Z,6.28
2022-10-04T05:14:17.584Z,6.26
2022-10-04T05:16:51.390Z,6.31
2022-10-04T05:19:32.361Z,6.29
2022-10-04T05:22:01.046Z,6.36
2022-10-04T05:24:29.179Z,6.32
2022-10-04T05:26:58.174Z,6.31
2022-10-04T05:29:26.939Z,6.30
2022-10-04T05:32:13.524Z,6.36
2022-10-04T05:34:41.693Z,6.56
2022-10-04T05:37:19.371Z,6.80
2022-10-04T05:39:49.416Z,7.07
2022-10-04T05:42:15.974Z,7.20
2022-10-04T05:44:56.785Z,7.28
2022-10-04T05:47:29.263Z,7.43
2022-10-04T05:49:57.925Z,7.55
2022-10-04T05:52:33.539Z,7.71
2022-10-04T05:55:12.295Z,7.81
2022-10-04T05:57:41.797Z,7.89
2022-10-04T06:00:15.618Z,7.96
2022-10-04T06:02:54.513Z,8.06
2022-10-04T06:05:29.381Z,8.19
2022-10-04T06:08:15.146Z,8.32
2022-10-04T06:10:53.770Z,8.50
2022-10-04T06:13:30.074Z,8.77
2022-10-04T06:16:02.792Z,8.89
2022-10-04T06:18:44.442Z,8.88
2022-10-04T06:21:11.087Z,9.02
2022-10-04T06:23:42.882Z,9.28
2022-10-04T06:26:12.504Z,9.40
2022-10-04T06:28:47.120Z,9.26
2022-10-04T06:31:13.827Z,9.38
2022-10-04T06:33:46.605Z,9.40
2022-10-04T06:36:16.239Z,9.46
2022-10-04T06:39:04.389Z,9.36
2022-10-04T06:41:31.213Z,9.22
2022-10-04T06:44:02.551Z,9.12
2022-10-04T06:46:43.205Z,9.01
2022-10-04T06:49:16.152Z,9.04
2022-10-04T06:51:45.913Z,9.19
2022-10-04T06:54:24.916Z,9.18
2022-10-04T06:56:55.940Z,9.21
2022-10-04T06:59:48.732Z,9.19
2022-10-04T07:02:19.292Z,9.32
2022-10-04T07:05:08.635Z,9.46
2022-10-04T07:07:37.366Z,9.40
2022-10-04T07:10:06.755Z,9.57
2022-10-04T07:12:34.715Z,9.84
2022-10-04T07:15:02.895Z,9.93
2022-10-04T07:17:32.873Z,10.16
2022-10-04T07:20:00.537Z,10.19
2022-10-04T07:22:31.036Z,10.17
2022-10-04T07:25:03.855Z,10.31
2022-10-04T07:27:33.842Z,10.38
2022-10-04T07:30:03.937Z,10.43
2022-10-04T07:32:34.966Z,10.56
2022-10-04T07:35:05.098Z,10.60
2022-10-04T07:37:36.285Z,10.67
2022-10-04T07:40:21.347Z,10.84
2022-10-04T07:42:50.684Z,10.81
2022-10-04T07:45:37.334Z,11.05
2022-10-04T07:48:16.376Z,11.20
2022-10-04T07:50:42.895Z,11.20
2022-10-04T07:53:15.396Z,11.26
2022-10-04T07:55:42.980Z,11.26
2022-10-04T07:58:18.997Z,11.35
2022-10-04T08:00:57.505Z,11.51
2022-10-04T08:03:27.041Z,11.50
2022-10-04T08:06:12.120Z,11.55
2022-10-04T08:09:00.709Z,11.52
2022-10-04T08:11:43.574Z,11.53
2022-10-04T08:14:27.438Z,11.80
2022-10-04T08:17:00.153Z,12.20
2022-10-04T08:19:26.685Z,12.35
2022-10-04T08:22:04.202Z,12.29
2022-10-04T08:24:33.725Z,12.29
2022-10-04T08:27:20.543Z,12.55
2022-10-04T08:30:16.400Z,12.84
2022-10-04T08:32:46.090Z,12.27
2022-10-04T08:35:28.812Z,12.04
2022-10-04T08:38:08.089Z,12.33
2022-10-04T08:40:38.486Z,12.47
2022-10-04T08:43:17.540Z,12.64
2022-10-04T08:45:56.480Z,12.74
2022-10-04T08:48:44.721Z,12.74
2022-10-04T08:51:37.375Z,12.93
2022-10-04T08:54:07.078Z,13.00
2022-10-04T08:56:36.490Z,13.12
2022-10-04T08:59:28.703Z,13.15
2022-10-04T09:02:12.186Z,13.35
2022-10-04T09:04:53.955Z,13.30
2022-10-04T09:07:50.521Z,13.57
2022-10-04T09:10:34.315Z,13.20
2022-10-04T09:13:00.851Z,13.32
2022-10-04T09:15:31.463Z,13.31
2022-10-04T09:18:13.427Z,13.11
2022-10-04T09:21:00.157Z,13.17
2022-10-04T09:23:29.455Z,13.40
2022-10-04T09:26:25.513Z,13.51
2022-10-04T09:29:08.744Z,13.39
2022-10-04T09:31:48.221Z,13.18
2022-10-04T09:34:37.282Z,13.28
2022-10-04T09:37:22.258Z,13.29
2022-10-04T09:39:48.810Z,13.54
2022-10-04T09:42:22.255Z,13.37
2022-10-04T09:44:48.785Z,13.27
2022-10-04T09:47:37.909Z,13.28
2022-10-04T09:50:26.907Z,13.10
2022-10-04T09:53:05.751Z,13.04
2022-10-04T09:55:51.161Z,13.13
2022-10-04T09:58:37.000Z,13.02
2022-10-04T10:01:16.953Z,13.24
2022-10-04T10:03:52.110Z,13.52
2022-10-04T10:06:21.615Z,13.33
2022-10-04T10:09:00.134Z,13.57
2022-10-04T10:11:50.805Z,13.61
2022-10-04T10:14:43.681Z,13.83
2022-10-04T10:17:28.892Z,13.80
2022-10-04T10:20:01.497Z,13.41
2022-10-04T10:22:47.222Z,13.54
2022-10-04T10:25:26.061Z,13.29
2022-10-04T10:27:52.869Z,13.25
2022-10-04T10:30:25.442Z,13.33
2022-10-04T10:33:10.509Z,13.44
2022-10-04T10:35:52.035Z,13.74
2022-10-04T10:38:22.185Z,13.71
2022-10-04T10:41:19.223Z,13.78
2022-10-04T10:44:02.261Z,14.33
2022-10-04T10:46:39.564Z,14.67
2022-10-04T10:49:24.416Z,14.80
2022-10-04T10:51:59.901Z,15.01
2022-10-04T10:54:45.226Z,14.58
2022-10-04T10:57:14.741Z,14.74
2022-10-04T11:00:00.620Z,15.10
2022-10-04T11:02:48.690Z,15.49
2022-10-04T11:05:16.232Z,15.53
2022-10-04T11:08:01.407Z,15.62
2022-10-04T11:10:32.345Z,15.80
2022-10-04T11:12:59.478Z,15.80
2022-10-04T11:15:46.914Z,16.57
2022-10-04T11:18:33.739Z,16.51
2022-10-04T11:21:06.430Z,16.52
2022-10-04T11:23:52.076Z,15.97
2022-10-04T11:26:19.849Z,15.95
2022-10-04T11:28:53.528Z,16.01
2022-10-04T11:31:40.689Z,15.95
2022-10-04T11:34:25.899Z,15.56
2022-10-04T11:36:55.224Z,15.16
2022-10-04T11:39:44.528Z,15.07
2022-10-04T11:42:29.937Z,14.63
2022-10-04T11:45:19.547Z,14.80
2022-10-04T11:48:02.779Z,14.74
2022-10-04T11:50:35.686Z,14.81
2022-10-04T11:53:03.292Z,15.26
2022-10-04T11:55:45.327Z,15.48
2022-10-04T11:58:18.826Z,15.47
2022-10-04T12:00:52.176Z,15.98
2022-10-04T12:03:19.776Z,15.23
2022-10-04T12:05:58.956Z,14.83
2022-10-04T12:08:25.558Z,14.77
2022-10-04T12:11:11.915Z,14.54
2022-10-04T12:13:41.425Z,14.56
2022-10-04T12:16:17.099Z,14.98
2022-10-04T12:18:58.942Z,15.70
2022-10-04T12:21:42.315Z,16.04
2022-10-04T12:24:09.195Z,15.89
2022-10-04T12:26:45.909Z,15.28
2022-10-04T12:29:15.557Z,14.76
2022-10-04T12:31:44.255Z,14.89
2022-10-04T12:34:14.675Z,15.23
2022-10-04T12:36:53.141Z,15.89
2022-10-04T12:39:37.933Z,16.77
2022-10-04T12:42:22.376Z,17.28
2022-10-04T12:44:57.444Z,17.03
2022-10-04T12:47:44.709Z,17.17
2022-10-04T12:50:18.519Z,18.23
2022-10-04T12:53:03.812Z,18.28
2022-10-04T12:55:49.248Z,18.49
2022-10-04T12:58:18.858Z,17.36
2022-10-04T13:00:46.595Z,17.48
2022-10-04T13:03:13.277Z,16.11
2022-10-04T13:05:40.075Z,15.49
2022-10-04T13:08:22.114Z,15.40
2022-10-04T13:10:48.780Z,15.07
2022-10-04T13:13:19.135Z,14.84
2022-10-04T13:19:09.531Z,13.44
2022-10-04T13:21:36.498Z,12.91
2022-10-04T13:24:13.236Z,12.81
2022-10-04T13:26:39.991Z,12.79
2022-10-04T13:29:15.555Z,12.74
2022-10-04T13:31:49.604Z,13.15
2022-10-04T13:34:16.861Z,13.16
2022-10-04T13:36:44.243Z,13.27
2022-10-04T13:39:29.324Z,13.09
2022-10-04T13:42:12.607Z,13.13
2022-10-04T13:44:56.939Z,13.29
2022-10-04T13:47:42.437Z,13.75
2022-10-04T13:50:14.858Z,13.95
2022-10-04T13:53:21.717Z,14.26
2022-10-04T13:56:12.438Z,14.77
2022-10-04T13:58:39.025Z,14.74
2022-10-04T14:01:15.556Z,14.88
2022-10-04T14:03:46.341Z,15.31
2022-10-04T14:06:43.737Z,14.85
2022-10-04T14:09:10.299Z,15.12
2022-10-04T14:11:43.356Z,15.14
2022-10-04T14:14:17.410Z,15.17
2022-10-04T14:17:00.503Z,14.54
2022-10-04T14:19:28.354Z,14.05
2022-10-04T14:22:16.677Z,14.09
2022-10-04T14:24:57.963Z,13.95
2022-10-04T14:27:43.438Z,13.64
2022-10-04T14:30:19.966Z,13.70
2022-10-04T14:33:10.807Z,13.95
2022-10-04T14:35:43.445Z,13.99
2022-10-04T14:38:36.394Z,14.10
2022-10-04T14:41:07.130Z,13.89
2022-10-04T14:43:52.389Z,14.18
2022-10-04T14:46:19.753Z,14.50
2022-10-04T14:49:05.236Z,15.27
2022-10-04T14:51:43.222Z,15.56
2022-10-04T14:54:14.208Z,16.44
2022-10-04T14:56:45.255Z,16.24
2022-10-04T14:59:14.749Z,16.78
2022-10-04T15:02:08.531Z,16.31
2022-10-04T15:04:54.560Z,15.00
2022-10-04T15:07:39.872Z,13.91
2022-10-04T15:10:12.514Z,13.46
2022-10-04T15:13:10.703Z,13.24
2022-10-04T15:15:46.107Z,13.33
2022-10-04T15:18:27.795Z,13.16
2022-10-04T15:20:57.408Z,12.91
2022-10-04T15:23:30.719Z,12.63
2022-10-04T15:26:01.560Z,12.69
2022-10-04T15:28:47.084Z,13.07
2022-10-04T15:31:13.783Z,13.46
2022-10-04T15:33:43.375Z,13.13
2022-10-04T15:36:14.472Z,12.68
2022-10-04T15:38:43.829Z,12.49
2022-10-04T15:41:10.381Z,12.35
2022-10-04T15:43:36.961Z,12.13
2022-10-04T15:46:23.946Z,11.97
2022-10-04T15:48:50.534Z,11.89
2022-10-04T15:51:35.683Z,11.77
2022-10-04T15:54:14.221Z,11.63
2022-10-04T15:56:40.788Z,11.56
2022-10-04T15:59:26.107Z,11.63
2022-10-04T16:02:01.631Z,11.65
2022-10-04T16:04:37.562Z,11.57
2022-10-04T16:07:06.995Z,11.46
2022-10-04T16:09:33.602Z,11.57
2022-10-04T16:12:09.415Z,11.52
2022-10-04T16:14:48.056Z,11.46
2022-10-04T16:17:27.024Z,11.44
2022-10-04T16:19:56.597Z,11.48
2022-10-04T16:22:30.924Z,11.53
2022-10-04T16:24:58.405Z,11.48
2022-10-04T16:27:54.699Z,11.47
2022-10-04T16:30:31.003Z,11.46
2022-10-04T16:33:13.754Z,11.51
2022-10-04T16:35:45.490Z,11.47
2022-10-04T16:38:12.065Z,11.45
2022-10-04T16:40:57.121Z,11.37
2022-10-04T16:43:26.992Z,11.43
2022-10-04T16:45:53.650Z,11.33
2022-10-04T16:48:27.909Z,11.38
2022-10-04T16:51:09.802Z,11.21
2022-10-04T16:53:51.463Z,11.19
2022-10-04T16:56:19.940Z,11.11
2022-10-04T16:58:52.788Z,11.01
2022-10-04T17:01:22.524Z,11.13
2022-10-04T17:04:09.524Z,11.06
2022-10-04T17:06:54.776Z,11.06
2022-10-04T17:09:30.245Z,10.98
2022-10-04T17:11:56.837Z,10.97
2022-10-04T17:14:41.954Z,10.96
2022-10-04T17:17:18.281Z,11.02
2022-10-04T17:20:11.185Z,10.92
2022-10-04T17:22:38.368Z,10.92
2022-10-04T17:25:17.368Z,10.90
2022-10-04T17:27:46.233Z,10.86
2022-10-04T17:30:18.999Z,10.85
2022-10-04T17:33:06.305Z,10.95
2022-10-04T17:35:51.495Z,10.92
2022-10-04T17:38:31.194Z,10.86
2022-10-04T17:41:18.089Z,10.64
2022-10-04T17:44:03.539Z,10.88
2022-10-04T17:46:44.631Z,10.93
2022-10-04T17:49:33.192Z,10.74
2022-10-04T17:52:22.045Z,10.92
2022-10-04T17:55:11.505Z,10.94
2022-10-04T17:57:45.281Z,10.86
2022-10-04T18:00:13.436Z,10.89
2022-10-04T18:03:02.302Z,10.91
2022-10-04T18:05:41.274Z,10.90
2022-10-04T18:08:08.188Z,10.80
2022-10-04T18:10:46.363Z,10.86
2022-10-04T18:13:15.992Z,10.83
2022-10-04T18:15:53.115Z,10.77
2022-10-04T18:18:27.155Z,10.63
2022-10-04T18:20:53.953Z,10.40
2022-10-04T18:23:32.438Z,10.58
2022-10-04T18:26:17.620Z,10.56
2022-10-04T18:28:45.301Z,10.46
2022-10-04T18:31:31.404Z,10.45
2022-10-04T18:34:01.749Z,10.34
2022-10-04T18:36:32.054Z,10.33
2022-10-04T18:39:03.753Z,10.25
2022-10-04T18:41:49.584Z,10.24
2022-10-04T18:44:17.488Z,9.95
2022-10-04T18:46:49.384Z,10.12
2022-10-04T18:49:18.463Z,10.10
2022-10-04T18:51:58.577Z,10.09
2022-10-04T18:54:37.488Z,10.04
2022-10-04T18:57:24.209Z,9.93
2022-10-04T19:00:15.908Z,9.82
2022-10-04T19:03:08.912Z,9.84
2022-10-04T19:05:40.429Z,9.79
2022-10-04T19:08:20.135Z,9.73
2022-10-04T19:10:58.519Z,9.60
2022-10-04T19:13:25.030Z,9.50
2022-10-04T19:16:12.135Z,9.32
2022-10-04T19:18:57.953Z,9.19
2022-10-04T19:21:36.879Z,9.02
2022-10-04T19:24:21.883Z,8.79
2022-10-04T19:26:50.449Z,8.65
2022-10-04T19:29:37.665Z,8.63
2022-10-04T19:32:09.720Z,8.52
2022-10-04T19:34:44.068Z,8.50
2022-10-04T19:37:16.810Z,8.52
2022-10-04T19:39:55.425Z,8.58
2022-10-04T19:42:27.495Z,8.54
2022-10-04T19:45:01.328Z,8.47
2022-10-04T19:47:36.172Z,8.48
2022-10-04T19:50:06.752Z,8.47
2022-10-04T19:52:36.134Z,8.33
2022-10-04T19:55:15.253Z,8.31
2022-10-04T19:57:42.112Z,8.22
2022-10-04T20:00:12.865Z,8.15
2022-10-04T20:02:44.640Z,8.01
2022-10-04T20:05:15.071Z,7.92
2022-10-04T20:07:48.236Z,7.84
2022-10-04T20:10:29.912Z,7.77
2022-10-04T20:13:13.613Z,7.72
2022-10-04T20:15:42.752Z,7.56
2022-10-04T20:18:28.206Z,7.49
2022-10-04T20:20:54.831Z,7.43
2022-10-04T20:23:39.788Z,7.45
2022-10-04T20:26:11.083Z,7.36
2022-10-04T20:28:42.427Z,7.31
2022-10-04T20:31:10.369Z,7.19
2022-10-04T20:33:38.939Z,7.04
2022-10-04T20:36:25.836Z,7.10
2022-10-04T20:38:59.715Z,7.05
2022-10-04T20:41:29.208Z,7.07
2022-10-04T20:43:55.798Z,7.04
2022-10-04T20:46:26.277Z,6.90
2022-10-04T20:48:54.158Z,6.89
2022-10-04T20:51:22.771Z,6.64
2022-10-04T20:53:52.520Z,6.60
2022-10-04T20:56:19.779Z,6.53
2022-10-04T20:58:54.499Z,6.45
2022-10-04T21:01:46.053Z,6.49
2022-10-04T21:04:42.953Z,6.46
2022-10-04T21:07:13.466Z,6.45
2022-10-04T21:09:41.343Z,6.56
2022-10-04T21:12:27.258Z,6.43
2022-10-04T21:15:12.366Z,6.41
2022-10-04T21:17:39.007Z,6.43
2022-10-04T21:20:09.979Z,6.46
2022-10-04T21:22:37.122Z,6.27
2022-10-04T21:25:05.816Z,6.22
2022-10-04T21:27:32.459Z,6.11
2022-10-04T21:29:59.705Z,6.06
2022-10-04T21:32:27.129Z,5.99
2022-10-04T21:34:54.577Z,5.91
2022-10-04T21:37:21.833Z,5.81
2022-10-04T21:39:48.460Z,5.76
2022-10-04T21:42:15.132Z,5.76
2022-10-04T21:44:41.762Z,5.85
2022-10-04T21:47:08.415Z,5.65
2022-10-04T21:49:35.113Z,5.58
2022-10-04T21:52:01.983Z,5.59
2022-10-04T21:54:28.566Z,5.56
2022-10-04T21:56:55.126Z,5.25
2022-10-04T21:59:22.057Z,5.41
2022-10-04T22:01:48.732Z,5.39
2022-10-04T22:04:15.327Z,5.39
2022-10-04T22:06:42.047Z,5.33
2022-10-04T22:09:08.954Z,5.47
2022-10-04T22:11:35.595Z,5.38
2022-10-04T22:14:02.704Z,5.34
2022-10-04T22:16:29.443Z,5.31
2022-10-04T22:18:56.202Z,5.15
2022-10-04T22:21:22.858Z,5.19
2022-10-04T22:23:49.444Z,5.08
2022-10-04T22:26:17.144Z,5.03
2022-10-04T22:28:47.984Z,5.00
2022-10-04T22:31:15.908Z,4.84
2022-10-04T22:33:43.815Z,4.75
2022-10-04T22:36:10.334Z,4.84
2022-10-04T22:38:36.922Z,4.90
2022-10-04T22:41:09.121Z,4.81
2022-10-04T22:43:36.173Z,4.72
2022-10-04T22:46:02.874Z,4.66
2022-10-04T22:48:29.472Z,4.75
2022-10-04T22:50:56.082Z,4.84
2022-10-04T22:53:23.288Z,4.75
2022-10-04T22:55:50.727Z,4.79
2022-10-04T22:58:17.511Z,4.65
2022-10-04T23:00:44.956Z,4.59
2022-10-04T23:03:31.437Z,4.78
2022-10-04T23:05:59.145Z,4.66
2022-10-04T23:08:25.790Z,4.62
2022-10-04T23:10:55.793Z,4.50
2022-10-04T23:13:24.874Z,4.42
2022-10-04T23:15:52.044Z,4.46
2022-10-04T23:18:18.799Z,4.26
2022-10-04T23:20:49.012Z,4.29
2022-10-04T23:23:21.557Z,4.19
2022-10-04T23:25:48.642Z,4.36
2022-10-04T23:28:16.687Z,4.31
2022-10-04T23:30:44.078Z,4.58
2022-10-04T23:33:16.078Z,4.43
2022-10-04T23:35:42.703Z,4.29
2022-10-04T23:38:17.206Z,4.11
2022-10-04T23:40:45.111Z,4.04
2022-10-04T23:43:15.003Z,4.10
2022-10-04T23:45:44.072Z,3.98
2022-10-04T23:48:21.182Z,3.83
2022-10-04T23:50:47.933Z,3.96
2022-10-04T23:53:26.686Z,3.96
2022-10-04T23:55:54.903Z,3.91
2022-10-04T23:58:22.908Z,3.69
